Terminal Aerodrome Forecast
Issued by NWS Houston/Galveston, TX

Home | Current Version | Previous Version | Text Only | Print | Product List | Glossary On
Versions: 1 2 3 4 5 6 7 8 9 10 11 12 13 14 15 16 17 18 19 20 21 22 23 24 25 26 27 28
000
FTUS44 KHGX 272325
TAFGLS
TAF
KGLS 272325Z 2800/2824 32016G25KT 3SM -SHRA BR BKN005 OVC015
     FM280400 35018G26KT 6SM -RA BR OVC009
     FM280900 35013G25KT 3SM SHRA BR OVC009=

USA.gov is the U.S. government's official web portal to all federal, state and local government web resources and services.